createdAt,value
2018-03-01T00:00:39.057Z,65.16
2018-03-01T00:03:06.774Z,65.06
2018-03-01T00:05:34.559Z,65.01
2018-03-01T00:08:02.301Z,65.09
2018-03-01T00:10:30.090Z,65.12
2018-03-01T00:12:57.828Z,65.31
2018-03-01T00:15:25.556Z,65.35
2018-03-01T00:17:53.297Z,65.46
2018-03-01T00:20:21.049Z,65.50
2018-03-01T00:22:48.813Z,65.46
2018-03-01T00:25:16.588Z,65.57
2018-03-01T00:27:44.328Z,65.65
2018-03-01T00:30:12.041Z,65.74
2018-03-01T00:32:39.880Z,65.78
2018-03-01T00:35:07.644Z,65.82
2018-03-01T00:37:35.363Z,65.84
2018-03-01T00:40:03.172Z,65.75
2018-03-01T00:42:30.936Z,65.79
2018-03-01T00:44:58.679Z,65.95
2018-03-01T00:47:26.470Z,66.11
2018-03-01T00:49:54.207Z,66.19
2018-03-01T00:52:21.927Z,66.06
2018-03-01T00:54:49.765Z,66.14
2018-03-01T00:57:17.480Z,66.07
2018-03-01T00:59:45.221Z,66.20
2018-03-01T01:02:12.965Z,66.18
2018-03-01T01:04:40.724Z,66.39
2018-03-01T01:07:08.436Z,66.38
2018-03-01T01:09:36.261Z,66.49
2018-03-01T01:12:03.992Z,66.42
2018-03-01T01:14:31.717Z,66.72
2018-03-01T01:16:59.548Z,66.73
2018-03-01T01:19:27.264Z,66.56
2018-03-01T01:21:55.012Z,66.69
2018-03-01T01:24:22.807Z,66.69
2018-03-01T01:26:50.612Z,66.87
2018-03-01T01:29:18.328Z,66.75
2018-03-01T01:31:46.070Z,66.95
2018-03-01T01:34:13.784Z,67.08
2018-03-01T01:36:41.520Z,67.08
2018-03-01T01:39:09.342Z,67.01
2018-03-01T01:41:37.112Z,67.00
2018-03-01T01:44:04.833Z,66.86
2018-03-01T01:46:32.588Z,67.05
2018-03-01T01:49:00.400Z,67.21
2018-03-01T01:51:28.114Z,67.33
2018-03-01T01:53:55.927Z,67.53
2018-03-01T01:56:23.700Z,67.29
2018-03-01T01:58:51.441Z,67.25
2018-03-01T02:01:19.161Z,67.35
2018-03-01T02:03:46.901Z,67.39
2018-03-01T02:06:14.622Z,67.47
2018-03-01T02:08:42.364Z,67.63
2018-03-01T02:11:10.187Z,67.58
2018-03-01T02:13:37.958Z,67.47
2018-03-01T02:16:05.728Z,67.68
2018-03-01T02:18:33.470Z,67.75
2018-03-01T02:21:01.223Z,67.64
2018-03-01T02:23:29.017Z,67.54
2018-03-01T02:25:56.757Z,67.70
2018-03-01T02:28:24.481Z,67.83
2018-03-01T02:30:52.314Z,67.91
2018-03-01T02:33:20.037Z,67.89
2018-03-01T02:35:47.782Z,67.87
2018-03-01T02:38:15.513Z,67.95
2018-03-01T02:40:43.256Z,67.83
2018-03-01T02:43:10.973Z,67.77
2018-03-01T02:45:38.718Z,67.36
2018-03-01T02:48:06.477Z,67.26
2018-03-01T02:50:34.249Z,66.78
2018-03-01T02:53:02.004Z,66.54
2018-03-01T02:55:29.716Z,66.74
2018-03-01T02:57:57.457Z,67.16
2018-03-01T03:00:25.200Z,67.48
2018-03-01T03:02:52.946Z,67.87
2018-03-01T03:05:20.655Z,67.81
2018-03-01T03:07:48.487Z,68.18
2018-03-01T03:10:16.203Z,68.46
2018-03-01T03:12:43.944Z,68.84
2018-03-01T03:15:11.660Z,68.80
2018-03-01T03:17:39.410Z,68.89
2018-03-01T03:20:07.133Z,69.05
2018-03-01T03:22:34.885Z,69.25
2018-03-01T03:25:02.645Z,69.20
2018-03-01T03:27:30.413Z,69.30
2018-03-01T03:29:58.152Z,69.35
2018-03-01T03:32:25.948Z,69.22
2018-03-01T03:34:53.688Z,68.84
2018-03-01T03:37:21.404Z,68.49
2018-03-01T03:39:49.145Z,67.99
2018-03-01T03:42:16.904Z,67.83
2018-03-01T03:44:44.668Z,68.04
2018-03-01T03:47:12.383Z,68.42
2018-03-01T03:49:40.201Z,69.01
2018-03-01T03:52:07.973Z,69.40
2018-03-01T03:54:35.712Z,69.52
2018-03-01T03:57:03.487Z,69.49
2018-03-01T03:59:31.238Z,69.49
2018-03-01T04:01:59.032Z,69.44
2018-03-01T04:04:26.793Z,69.45
2018-03-01T04:06:54.539Z,69.59
2018-03-01T04:09:22.252Z,69.26
2018-03-01T04:11:50.090Z,68.84
2018-03-01T04:14:17.796Z,68.29
2018-03-01T04:16:45.628Z,67.98
2018-03-01T04:19:13.350Z,68.21
2018-03-01T04:21:41.147Z,68.31
2018-03-01T04:24:08.873Z,68.58
2018-03-01T04:26:36.604Z,68.75
2018-03-01T04:29:04.315Z,69.09
2018-03-01T04:31:32.113Z,69.24
2018-03-01T04:33:59.825Z,69.11
2018-03-01T04:36:27.517Z,69.31
2018-03-01T04:38:55.280Z,69.49
2018-03-01T04:41:23.045Z,69.79
2018-03-01T04:43:50.756Z,70.08
2018-03-01T04:46:18.464Z,70.22
2018-03-01T04:48:46.167Z,70.25
2018-03-01T04:51:13.858Z,70.50
2018-03-01T04:53:41.668Z,70.63
2018-03-01T04:56:09.428Z,70.74
2018-03-01T04:58:37.137Z,71.37
2018-03-01T05:01:04.828Z,71.73
2018-03-01T05:03:32.548Z,71.81
2018-03-01T05:06:00.242Z,71.59
2018-03-01T05:08:28.047Z,71.52
2018-03-01T05:10:55.814Z,70.71
2018-03-01T05:13:23.533Z,71.75
2018-03-01T05:15:51.251Z,71.95
2018-03-01T05:18:19.012Z,71.98
2018-03-01T05:20:46.782Z,72.04
2018-03-01T05:23:14.497Z,72.16
2018-03-01T05:25:42.188Z,72.15
2018-03-01T05:28:09.981Z,72.10
2018-03-01T05:30:37.673Z,72.24
2018-03-01T05:33:05.365Z,72.37
2018-03-01T05:35:33.244Z,72.19
2018-03-01T05:38:00.999Z,71.94
2018-03-01T05:40:28.713Z,72.09
2018-03-01T05:42:56.465Z,71.97
2018-03-01T05:45:24.228Z,71.76
2018-03-01T05:47:51.932Z,71.66
2018-03-01T05:50:19.645Z,71.14
2018-03-01T05:52:47.341Z,70.75
2018-03-01T05:55:15.084Z,70.57
2018-03-01T05:57:42.780Z,70.69
2018-03-01T06:00:10.615Z,70.88
2018-03-01T06:02:38.346Z,70.11
2018-03-01T06:05:06.024Z,70.23
2018-03-01T06:07:33.813Z,70.41
2018-03-01T06:10:01.586Z,70.96
2018-03-01T06:12:29.349Z,71.35
2018-03-01T06:14:57.108Z,71.52
2018-03-01T06:17:24.958Z,71.87
2018-03-01T06:19:52.743Z,71.60
2018-03-01T06:22:20.522Z,71.60
2018-03-01T06:24:48.276Z,71.77
2018-03-01T06:27:16.039Z,71.81
2018-03-01T06:29:43.736Z,72.04
2018-03-01T06:32:11.453Z,72.62
2018-03-01T06:34:39.242Z,73.30
2018-03-01T06:37:07.004Z,74.88
2018-03-01T06:39:34.769Z,74.40
2018-03-01T06:42:02.470Z,74.19
2018-03-01T06:44:30.244Z,73.72
2018-03-01T06:46:57.961Z,73.45
2018-03-01T06:49:25.681Z,73.27
2018-03-01T06:51:53.368Z,72.96
2018-03-01T06:54:21.084Z,72.63
2018-03-01T06:56:48.780Z,72.28
2018-03-01T06:59:16.579Z,71.84
2018-03-01T07:01:44.276Z,71.46
2018-03-01T07:04:11.993Z,71.09
2018-03-01T07:06:39.695Z,70.47
2018-03-01T07:09:07.431Z,70.17
2018-03-01T07:11:35.145Z,69.78
2018-03-01T07:14:02.868Z,69.24
2018-03-01T07:16:31.320Z,68.74
2018-03-01T07:18:59.013Z,68.50
2018-03-01T07:21:26.780Z,68.21
2018-03-01T07:23:54.545Z,67.46
2018-03-01T07:26:22.251Z,66.87
2018-03-01T07:28:49.935Z,66.77
2018-03-01T07:31:17.737Z,66.33
2018-03-01T07:33:45.506Z,66.09
2018-03-01T07:36:13.270Z,65.95
2018-03-01T07:38:40.957Z,65.75
2018-03-01T07:41:08.681Z,65.40
2018-03-01T07:43:36.359Z,65.18
2018-03-01T07:46:04.105Z,64.73
2018-03-01T07:48:31.801Z,64.36
2018-03-01T07:50:59.491Z,64.43
2018-03-01T07:53:27.314Z,63.90
2018-03-01T07:55:55.088Z,63.91
2018-03-01T07:58:22.843Z,63.13
2018-03-01T08:00:50.616Z,63.10
2018-03-01T08:03:18.340Z,62.72
2018-03-01T08:05:46.049Z,62.76
2018-03-01T08:08:13.817Z,62.50
2018-03-01T08:10:41.572Z,62.15
2018-03-01T08:13:09.345Z,61.53
2018-03-01T08:15:37.104Z,61.22
2018-03-01T08:18:04.807Z,61.16
2018-03-01T08:20:32.529Z,61.08
2018-03-01T08:23:00.301Z,60.68
2018-03-01T08:25:28.011Z,60.79
2018-03-01T08:27:55.744Z,60.49
2018-03-01T08:30:23.457Z,60.10
2018-03-01T08:32:51.152Z,60.16
2018-03-01T08:35:18.853Z,60.33
2018-03-01T08:37:46.550Z,60.44
2018-03-01T08:40:14.252Z,59.85
2018-03-01T08:42:42.021Z,59.74
2018-03-01T08:45:09.784Z,59.40
2018-03-01T08:47:37.481Z,59.07
2018-03-01T08:50:05.307Z,59.65
2018-03-01T08:52:33.072Z,59.15
2018-03-01T08:55:00.820Z,58.88
2018-03-01T08:57:28.516Z,58.62
2018-03-01T08:59:56.276Z,58.37
2018-03-01T09:02:24.135Z,58.39
2018-03-01T09:04:51.913Z,57.91
2018-03-01T09:07:19.672Z,58.21
2018-03-01T09:09:47.441Z,58.23
2018-03-01T09:12:15.157Z,57.98
2018-03-01T09:14:42.861Z,58.23
2018-03-01T09:17:10.572Z,57.89
2018-03-01T09:19:38.337Z,57.14
2018-03-01T09:22:06.166Z,57.03
2018-03-01T09:24:33.871Z,56.56
2018-03-01T09:27:01.590Z,55.86
2018-03-01T09:29:29.268Z,56.53
2018-03-01T09:31:57.024Z,56.40
2018-03-01T09:34:24.794Z,56.49
2018-03-01T09:36:52.529Z,55.03
2018-03-01T09:39:20.220Z,55.51
2018-03-01T09:41:47.912Z,54.70
2018-03-01T09:44:15.620Z,54.85
2018-03-01T09:46:43.407Z,55.05
2018-03-01T09:49:11.117Z,54.67
2018-03-01T09:51:38.808Z,54.40
2018-03-01T09:54:06.521Z,54.13
2018-03-01T09:56:34.272Z,53.96
2018-03-01T09:59:02.033Z,54.12
2018-03-01T10:01:29.802Z,52.77
2018-03-01T10:03:57.593Z,53.00
2018-03-01T10:06:25.337Z,52.61
2018-03-01T10:08:53.102Z,52.24
2018-03-01T10:11:20.861Z,52.64
2018-03-01T10:13:48.589Z,52.47
2018-03-01T10:16:17.138Z,51.66
2018-03-01T10:18:44.861Z,51.76
2018-03-01T10:21:12.545Z,52.31
2018-03-01T10:23:41.057Z,51.45
2018-03-01T10:26:08.756Z,51.98
2018-03-01T10:28:39.297Z,52.62
2018-03-01T10:31:07.053Z,52.49
2018-03-01T10:33:40.204Z,52.23
2018-03-01T10:36:07.925Z,52.53
2018-03-01T10:38:35.701Z,53.07
2018-03-01T10:41:03.483Z,52.94
2018-03-01T10:43:31.178Z,53.01
2018-03-01T10:45:58.898Z,52.62
2018-03-01T10:48:26.581Z,51.94
2018-03-01T10:50:54.337Z,52.23
2018-03-01T10:53:22.114Z,52.36
2018-03-01T10:55:49.824Z,51.83
2018-03-01T10:58:17.509Z,52.24
2018-03-01T11:00:45.233Z,51.99
2018-03-01T11:03:12.921Z,51.23
2018-03-01T11:05:40.613Z,50.61
2018-03-01T11:08:08.478Z,50.92
2018-03-01T11:10:36.162Z,51.06
2018-03-01T11:13:03.880Z,51.21
2018-03-01T11:15:31.685Z,51.19
2018-03-01T11:17:59.396Z,51.35
2018-03-01T11:20:27.079Z,50.49
2018-03-01T11:22:54.867Z,50.81
2018-03-01T11:25:22.644Z,51.49
2018-03-01T11:27:50.356Z,51.45
2018-03-01T11:30:18.041Z,50.45
2018-03-01T11:32:45.833Z,50.95
2018-03-01T11:35:13.520Z,50.49
2018-03-01T11:37:41.223Z,51.04
2018-03-01T11:40:08.923Z,50.77
2018-03-01T11:42:36.640Z,51.43
2018-03-01T11:45:04.337Z,51.23
2018-03-01T11:47:32.068Z,51.24
2018-03-01T11:49:59.752Z,50.72
2018-03-01T11:52:27.433Z,50.63
2018-03-01T11:54:55.144Z,50.37
2018-03-01T11:57:22.836Z,51.08
2018-03-01T11:59:50.540Z,50.82
2018-03-01T12:02:18.230Z,51.07
2018-03-01T12:04:45.942Z,50.84
2018-03-01T12:07:13.637Z,50.66
2018-03-01T12:09:41.393Z,50.62
2018-03-01T12:12:09.087Z,50.62
2018-03-01T12:14:36.820Z,50.26
2018-03-01T12:17:04.593Z,50.72
2018-03-01T12:19:32.349Z,50.05
2018-03-01T12:22:00.171Z,49.90
2018-03-01T12:24:27.851Z,49.82
2018-03-01T12:26:55.548Z,49.83
2018-03-01T12:29:23.283Z,50.17
2018-03-01T12:31:51.077Z,49.43
2018-03-01T12:34:18.941Z,49.47
2018-03-01T12:36:46.713Z,48.81
2018-03-01T12:39:14.481Z,48.42
2018-03-01T12:41:42.191Z,48.54
2018-03-01T12:44:09.904Z,48.81
2018-03-01T12:46:37.625Z,48.90
2018-03-01T12:49:05.316Z,49.36
2018-03-01T12:51:33.032Z,48.92
2018-03-01T12:54:00.721Z,49.39
2018-03-01T12:56:28.428Z,48.83
2018-03-01T12:58:56.117Z,48.19
2018-03-01T13:01:23.817Z,48.87
2018-03-01T13:03:51.508Z,48.59
2018-03-01T13:06:19.236Z,48.13
2018-03-01T13:08:46.916Z,47.72
2018-03-01T13:11:14.606Z,48.78
2018-03-01T13:13:42.308Z,48.55
2018-03-01T13:16:09.993Z,48.35
2018-03-01T13:18:37.688Z,49.13
2018-03-01T13:21:05.365Z,48.90
2018-03-01T13:23:33.074Z,49.66
2018-03-01T13:26:00.766Z,49.41
2018-03-01T13:28:28.468Z,49.38
2018-03-01T13:30:57.003Z,49.22
2018-03-01T13:33:27.293Z,49.53
2018-03-01T13:35:55.289Z,50.08
2018-03-01T13:38:22.996Z,49.88
2018-03-01T13:40:50.674Z,49.37
2018-03-01T13:43:20.812Z,49.45
2018-03-01T13:45:48.497Z,49.08
2018-03-01T13:48:16.210Z,48.53
2018-03-01T13:50:43.884Z,48.29
2018-03-01T13:53:11.640Z,48.35
2018-03-01T13:55:39.325Z,48.64
2018-03-01T13:58:07.024Z,49.33
2018-03-01T14:00:34.706Z,49.04
2018-03-01T14:03:02.437Z,49.04
2018-03-01T14:05:30.121Z,49.63
2018-03-01T14:07:57.925Z,48.92
2018-03-01T14:10:25.629Z,48.89
2018-03-01T14:12:56.323Z,49.02
2018-03-01T14:15:24.030Z,49.33
2018-03-01T14:17:57.320Z,49.50
2018-03-01T14:23:44.181Z,49.60
2018-03-01T14:26:17.469Z,48.74
2018-03-01T14:28:55.081Z,48.91
2018-03-01T14:31:22.760Z,49.05
2018-03-01T14:33:50.542Z,49.20
2018-03-01T14:36:18.216Z,49.61
2018-03-01T14:38:45.972Z,50.08
2018-03-01T14:41:13.653Z,49.64
2018-03-01T14:43:41.356Z,49.83
2018-03-01T14:46:09.072Z,50.69
2018-03-01T14:48:36.804Z,50.09
2018-03-01T14:51:04.490Z,49.80
2018-03-01T14:53:32.266Z,49.51
2018-03-01T14:55:59.986Z,49.84
2018-03-01T14:58:27.673Z,50.19
2018-03-01T15:00:55.385Z,49.75
2018-03-01T15:03:23.130Z,49.97
2018-03-01T15:05:50.848Z,50.40
2018-03-01T15:08:18.532Z,50.65
2018-03-01T15:10:46.241Z,51.08
2018-03-01T15:13:13.994Z,50.72
2018-03-01T15:15:41.705Z,50.61
2018-03-01T15:18:09.388Z,50.75
2018-03-01T15:20:37.097Z,51.18
2018-03-01T15:23:04.841Z,50.44
2018-03-01T15:25:32.604Z,50.85
2018-03-01T15:28:00.297Z,50.83
2018-03-01T15:30:28.033Z,50.33
2018-03-01T15:32:55.714Z,50.53
2018-03-01T15:35:23.428Z,51.07
2018-03-01T15:37:51.120Z,51.61
2018-03-01T15:40:18.896Z,50.92
2018-03-01T15:42:46.605Z,50.92
2018-03-01T15:45:14.325Z,51.37
2018-03-01T15:47:42.090Z,51.06
2018-03-01T15:50:09.848Z,51.20
2018-03-01T15:52:37.548Z,51.51
2018-03-01T15:55:05.294Z,51.73
2018-03-01T15:57:33.040Z,52.08
2018-03-01T16:00:00.724Z,52.26
2018-03-01T16:02:28.437Z,52.28
2018-03-01T16:04:56.121Z,52.78
2018-03-01T16:07:23.834Z,52.68
2018-03-01T16:09:51.528Z,52.71
2018-03-01T16:12:19.253Z,52.79
2018-03-01T16:14:46.992Z,52.94
2018-03-01T16:17:14.677Z,53.05
2018-03-01T16:19:42.386Z,52.99
2018-03-01T16:22:10.096Z,53.24
2018-03-01T16:24:37.800Z,53.21
2018-03-01T16:27:05.490Z,53.56
2018-03-01T16:29:33.196Z,53.44
2018-03-01T16:32:00.948Z,53.67
2018-03-01T16:34:28.716Z,53.58
2018-03-01T16:36:56.484Z,53.99
2018-03-01T16:39:24.201Z,53.95
2018-03-01T16:41:51.905Z,54.07
2018-03-01T16:44:19.617Z,54.43
2018-03-01T16:46:47.349Z,54.45
2018-03-01T16:49:15.108Z,54.71
2018-03-01T16:51:42.841Z,55.10
2018-03-01T16:54:10.563Z,54.82
2018-03-01T16:56:38.301Z,54.86
2018-03-01T16:59:06.069Z,54.73
2018-03-01T17:01:33.834Z,55.08
2018-03-01T17:04:01.601Z,55.56
2018-03-01T17:06:29.317Z,55.10
2018-03-01T17:08:57.024Z,55.18
2018-03-01T17:11:24.730Z,55.36
2018-03-01T17:13:52.452Z,55.34
2018-03-01T17:16:20.161Z,55.19
2018-03-01T17:18:47.849Z,55.33
2018-03-01T17:21:15.557Z,55.49
2018-03-01T17:23:43.318Z,55.44
2018-03-01T17:26:11.076Z,55.48
2018-03-01T17:28:38.840Z,55.58
2018-03-01T17:31:06.552Z,55.71
2018-03-01T17:33:34.280Z,56.59
2018-03-01T17:36:01.973Z,56.41
2018-03-01T17:38:29.721Z,56.19
2018-03-01T17:40:57.404Z,56.17
2018-03-01T17:43:25.113Z,56.26
2018-03-01T17:45:52.797Z,56.51
2018-03-01T17:48:20.518Z,56.47
2018-03-01T17:50:48.216Z,56.39
2018-03-01T17:53:15.921Z,56.58
2018-03-01T17:55:43.604Z,56.60
2018-03-01T17:58:11.308Z,56.88
2018-03-01T18:00:38.985Z,56.61
2018-03-01T18:03:06.692Z,56.60
2018-03-01T18:05:34.373Z,56.60
2018-03-01T18:08:02.094Z,56.46
2018-03-01T18:10:29.841Z,56.46
2018-03-01T18:12:57.699Z,55.96
2018-03-01T18:15:25.409Z,56.29
2018-03-01T18:17:53.101Z,55.91
2018-03-01T18:20:20.800Z,56.02
2018-03-01T18:22:48.561Z,56.07
2018-03-01T18:25:16.272Z,56.26
2018-03-01T18:27:43.966Z,56.31
2018-03-01T18:30:11.751Z,56.39
2018-03-01T18:32:39.527Z,56.71
2018-03-01T18:35:07.284Z,56.66
2018-03-01T18:37:34.994Z,56.94
2018-03-01T18:40:02.816Z,56.78
2018-03-01T18:42:30.580Z,57.02
2018-03-01T18:44:58.266Z,56.92
2018-03-01T18:47:25.972Z,56.85
2018-03-01T18:49:53.685Z,57.00
2018-03-01T18:52:21.394Z,57.10
2018-03-01T18:54:49.082Z,57.24
2018-03-01T18:57:16.879Z,57.26
2018-03-01T18:59:44.568Z,57.58
2018-03-01T19:02:12.306Z,57.76
2018-03-01T19:04:39.989Z,58.08
2018-03-01T19:07:07.744Z,58.06
2018-03-01T19:09:35.434Z,58.12
2018-03-01T19:12:03.259Z,58.39
2018-03-01T19:14:30.941Z,58.33
2018-03-01T19:16:58.681Z,58.58
2018-03-01T19:19:26.455Z,58.81
2018-03-01T19:21:54.181Z,59.14
2018-03-01T19:24:21.893Z,59.05
2018-03-01T19:26:49.590Z,59.13
2018-03-01T19:29:17.302Z,59.31
2018-03-01T19:31:45.080Z,59.76
2018-03-01T19:34:12.821Z,59.65
2018-03-01T19:36:40.496Z,59.64
2018-03-01T19:39:08.276Z,59.77
2018-03-01T19:41:36.036Z,59.90
2018-03-01T19:44:03.762Z,60.08
2018-03-01T19:46:31.440Z,60.08
2018-03-01T19:48:59.129Z,60.34
2018-03-01T19:51:26.852Z,60.46
2018-03-01T19:53:54.565Z,60.84
2018-03-01T19:56:22.264Z,60.87
2018-03-01T19:58:49.949Z,61.09
2018-03-01T20:01:17.691Z,61.08
2018-03-01T20:03:45.372Z,61.16
2018-03-01T20:06:13.190Z,61.11
2018-03-01T20:08:40.962Z,61.33
2018-03-01T20:11:08.674Z,61.63
2018-03-01T20:13:36.353Z,61.50
2018-03-01T20:16:04.156Z,61.52
2018-03-01T20:18:31.836Z,61.59
2018-03-01T20:20:59.525Z,61.80
2018-03-01T20:23:27.344Z,61.79
2018-03-01T20:25:55.113Z,61.93
2018-03-01T20:28:22.825Z,62.25
2018-03-01T20:30:50.541Z,62.43
2018-03-01T20:33:18.240Z,62.44
2018-03-01T20:35:46.135Z,62.37
2018-03-01T20:38:13.793Z,62.57
2018-03-01T20:40:41.477Z,62.62
2018-03-01T20:43:09.185Z,62.73
2018-03-01T20:45:36.924Z,62.82
2018-03-01T20:48:04.646Z,62.89
2018-03-01T20:50:32.328Z,63.06
2018-03-01T20:53:00.050Z,62.97
2018-03-01T20:55:27.790Z,62.73
2018-03-01T20:57:55.481Z,63.11
2018-03-01T21:00:23.230Z,63.19
2018-03-01T21:02:50.912Z,63.28
2018-03-01T21:05:18.620Z,63.24
2018-03-01T21:07:46.304Z,63.46
2018-03-01T21:10:14.081Z,63.43
2018-03-01T21:12:41.764Z,63.55
2018-03-01T21:15:09.513Z,63.55
2018-03-01T21:17:37.200Z,63.66
2018-03-01T21:20:04.918Z,63.62
2018-03-01T21:22:32.697Z,63.61
2018-03-01T21:25:00.466Z,63.80
2018-03-01T21:27:28.229Z,63.92
2018-03-01T21:29:55.949Z,64.07
2018-03-01T21:32:23.633Z,63.98
2018-03-01T21:34:51.356Z,64.11
2018-03-01T21:37:19.081Z,64.04
2018-03-01T21:39:46.776Z,64.11
2018-03-01T21:42:14.498Z,64.30
2018-03-01T21:44:42.276Z,64.18
2018-03-01T21:47:09.984Z,64.26
2018-03-01T21:49:37.677Z,64.21
2018-03-01T21:52:05.384Z,64.30
2018-03-01T21:54:33.091Z,64.33
2018-03-01T21:57:00.900Z,64.41
2018-03-01T21:59:28.668Z,64.46
2018-03-01T22:01:56.381Z,64.33
2018-03-01T22:04:24.101Z,64.41
2018-03-01T22:06:51.864Z,64.32
2018-03-01T22:09:19.557Z,64.12
2018-03-01T22:11:47.289Z,64.11
2018-03-01T22:14:14.980Z,63.97
2018-03-01T22:16:42.667Z,63.86
2018-03-01T22:19:10.368Z,63.60
2018-03-01T22:21:38.056Z,63.47
2018-03-01T22:24:05.772Z,63.55
2018-03-01T22:26:33.490Z,63.44
2018-03-01T22:29:01.236Z,63.25
2018-03-01T22:31:29.018Z,63.13
2018-03-01T22:33:56.742Z,63.03
2018-03-01T22:36:24.437Z,63.04
2018-03-01T22:38:52.201Z,63.15
2018-03-01T22:41:19.901Z,63.11
2018-03-01T22:43:47.614Z,62.99
2018-03-01T22:46:15.398Z,62.85
2018-03-01T22:48:43.134Z,62.97
2018-03-01T22:51:10.821Z,63.10
2018-03-01T22:53:38.508Z,62.96
2018-03-01T22:56:06.228Z,63.02
2018-03-01T22:58:33.916Z,63.09
2018-03-01T23:01:01.633Z,63.11
2018-03-01T23:03:29.349Z,63.16
2018-03-01T23:05:57.069Z,63.30
2018-03-01T23:08:24.755Z,63.50
2018-03-01T23:10:52.481Z,63.49
2018-03-01T23:13:20.172Z,63.37
2018-03-01T23:15:47.885Z,63.42
2018-03-01T23:18:15.637Z,63.64
2018-03-01T23:20:43.361Z,63.66
2018-03-01T23:23:11.050Z,63.72
2018-03-01T23:25:38.828Z,63.84
2018-03-01T23:28:06.524Z,64.09
2018-03-01T23:30:34.275Z,64.09
2018-03-01T23:33:02.006Z,63.99
2018-03-01T23:35:29.747Z,64.21
2018-03-01T23:37:57.560Z,64.19
2018-03-01T23:40:25.322Z,64.16
2018-03-01T23:42:53.083Z,64.00
2018-03-01T23:45:20.852Z,63.96
2018-03-01T23:47:48.572Z,64.03
2018-03-01T23:50:16.276Z,64.06
2018-03-01T23:52:43.992Z,64.02
2018-03-01T23:55:11.681Z,64.16
2018-03-01T23:57:39.409Z,64.16
